createdAt,value
2019-04-22T00:02:10.518Z,41.77
2019-04-22T00:04:47.576Z,41.49
2019-04-22T00:07:28.927Z,41.58
2019-04-22T00:10:04.803Z,42.18
2019-04-22T00:12:37.208Z,41.56
2019-04-22T00:14:54.235Z,41.73
2019-04-22T00:17:30.658Z,41.91
2019-04-22T00:20:03.126Z,42.83
2019-04-22T00:24:51.258Z,43.41
2019-04-22T00:27:29.499Z,44.44
2019-04-22T00:30:09.139Z,44.97
2019-04-22T00:32:19.475Z,45.89
2019-04-22T00:34:48.802Z,46.67
2019-04-22T00:37:26.744Z,47.25
2019-04-22T00:39:46.690Z,48.69
2019-04-22T00:42:21.078Z,49.33
2019-04-22T00:44:48.935Z,50.49
2019-04-22T00:47:24.964Z,50.60
2019-04-22T00:54:47.431Z,51.68
2019-04-22T00:57:13.699Z,51.73
2019-04-22T00:59:41.760Z,52.04
2019-04-22T01:02:07.667Z,52.47
2019-04-22T01:04:40.677Z,52.81
2019-04-22T01:07:09.166Z,53.16
2019-04-22T01:09:38.915Z,53.28
2019-04-22T01:12:12.079Z,53.18
2019-04-22T01:14:29.787Z,53.76
2019-04-22T01:17:01.447Z,53.92
2019-04-22T01:19:32.320Z,53.86
2019-04-22T01:21:58.324Z,53.81
2019-04-22T01:24:31.081Z,53.68
2019-04-22T01:26:52.298Z,53.48
2019-04-22T01:29:14.711Z,53.43
2019-04-22T01:31:37.152Z,52.87
2019-04-22T01:34:16.147Z,53.50
2019-04-22T01:36:54.982Z,53.50
2019-04-22T01:39:25.836Z,52.91
2019-04-22T01:41:59.808Z,52.85
2019-04-22T01:44:31.371Z,53.06
2019-04-22T01:49:22.434Z,53.05
2019-04-22T01:56:51.360Z,53.40
2019-04-22T01:59:12.865Z,53.48
2019-04-22T02:04:23.229Z,55.67
2019-04-22T02:06:46.298Z,55.67
2019-04-22T02:09:17.442Z,55.57
2019-04-22T02:11:48.836Z,55.66
2019-04-22T02:14:11.714Z,54.90
2019-04-22T02:19:11.468Z,56.63
2019-04-22T02:21:34.253Z,56.37
2019-04-22T02:24:19.853Z,55.90
2019-04-22T02:26:38.550Z,56.65
2019-04-22T02:29:01.578Z,57.45
2019-04-22T02:31:35.794Z,57.96
2019-04-22T02:39:12.179Z,58.42
2019-04-22T02:44:12.262Z,57.78
2019-04-22T02:46:46.830Z,58.34
2019-04-22T02:49:01.398Z,58.62
2019-04-22T02:51:26.237Z,58.81
2019-04-22T03:01:39.800Z,60.89
2019-04-22T03:06:33.842Z,59.97
2019-04-22T03:11:19.114Z,61.17
2019-04-22T03:16:26.569Z,61.04
2019-04-22T03:21:16.058Z,61.43
2019-04-22T03:23:55.861Z,61.77
2019-04-22T03:28:46.265Z,61.79
2019-04-22T03:31:55.045Z,61.58
2019-04-22T03:34:39.223Z,62.01
2019-04-22T03:39:24.842Z,61.49
2019-04-22T03:41:39.325Z,61.71
2019-04-22T03:46:21.524Z,61.14
2019-04-22T03:48:59.748Z,60.98
2019-04-22T03:51:27.640Z,62.23
2019-04-22T03:53:50.103Z,61.92
2019-04-22T03:56:51.125Z,62.01
2019-04-22T03:58:49.579Z,62.67
2019-04-22T04:03:40.477Z,63.25
2019-04-22T04:06:04.910Z,62.41
2019-04-22T04:08:32.755Z,62.74
2019-04-22T04:10:57.498Z,62.03
2019-04-22T04:13:34.079Z,62.74
2019-04-22T04:15:55.572Z,61.87
2019-04-22T04:18:39.286Z,62.30
2019-04-22T04:21:18.754Z,62.87
2019-04-22T04:26:02.366Z,63.40
2019-04-22T04:28:39.893Z,63.18
2019-04-22T04:30:59.948Z,63.94
2019-04-22T04:33:24.949Z,62.69
2019-04-22T04:35:54.540Z,64.21
2019-04-22T04:38:20.808Z,64.75
2019-04-22T04:41:06.965Z,65.37
2019-04-22T04:43:17.376Z,65.12
2019-04-22T04:48:20.829Z,64.64
2019-04-22T04:50:53.655Z,64.13
2019-04-22T04:55:44.232Z,63.65
2019-04-22T05:00:48.876Z,63.79
2019-04-22T05:03:13.106Z,64.18
2019-04-22T05:05:43.296Z,63.83
2019-04-22T05:08:00.812Z,64.21
2019-04-22T05:13:10.758Z,63.46
2019-04-22T05:20:32.024Z,63.15
2019-04-22T05:22:51.100Z,63.39
2019-04-22T05:35:14.389Z,61.87
2019-04-22T05:37:51.904Z,60.59
2019-04-22T05:42:34.223Z,61.00
2019-04-22T05:45:17.615Z,60.35
2019-04-22T05:47:44.416Z,59.70
2019-04-22T05:50:11.305Z,58.66
2019-04-22T05:52:43.136Z,58.09
2019-04-22T05:55:08.224Z,56.55
2019-04-22T05:57:32.764Z,57.13
2019-04-22T06:00:06.395Z,56.63
2019-04-22T06:05:06.654Z,56.02
2019-04-22T06:07:27.916Z,56.33
2019-04-22T06:10:07.813Z,56.39
2019-04-22T06:12:20.949Z,56.22
2019-04-22T06:14:58.135Z,55.68
2019-04-22T06:17:31.720Z,54.97
2019-04-22T06:19:58.924Z,54.98
2019-04-22T06:22:31.959Z,53.76
2019-04-22T06:24:57.770Z,53.28
2019-04-22T06:29:46.344Z,52.52
2019-04-22T06:32:28.082Z,52.25
2019-04-22T06:34:48.505Z,51.47
2019-04-22T06:37:17.396Z,50.32
2019-04-22T06:39:46.629Z,49.66
2019-04-22T06:42:13.775Z,49.49
2019-04-22T06:44:47.534Z,49.80
2019-04-22T06:47:14.820Z,48.92
2019-04-22T06:52:16.633Z,48.88
2019-04-22T06:54:45.464Z,48.80
2019-04-22T06:57:05.871Z,49.13
2019-04-22T06:59:38.071Z,48.09
2019-04-22T07:04:37.592Z,48.12
2019-04-22T07:07:04.688Z,44.01
2019-04-22T07:09:36.952Z,43.94
2019-04-22T07:11:58.774Z,42.41
2019-04-22T07:14:31.666Z,41.04
2019-04-22T07:16:56.217Z,40.95
2019-04-22T07:19:28.162Z,40.79
2019-04-22T07:22:00.354Z,41.41
2019-04-22T07:26:54.549Z,39.89
2019-04-22T07:29:44.749Z,39.78
2019-04-22T07:31:56.348Z,40.00
2019-04-22T07:34:44.509Z,40.15
2019-04-22T07:36:53.590Z,40.05
2019-04-22T07:39:15.764Z,39.73
2019-04-22T07:41:37.781Z,38.62
2019-04-22T07:46:54.813Z,38.12
2019-04-22T07:49:14.211Z,38.64
2019-04-22T07:51:46.760Z,38.88
2019-04-22T07:54:11.285Z,38.81
2019-04-22T07:56:36.696Z,38.93
2019-04-22T07:59:13.908Z,39.38
2019-04-22T08:01:30.831Z,38.93
2019-04-22T08:04:08.610Z,38.87
2019-04-22T08:06:30.895Z,38.21
2019-04-22T08:09:01.837Z,38.87
2019-04-22T08:13:52.996Z,37.59
2019-04-22T08:16:26.296Z,38.40
2019-04-22T08:18:54.057Z,38.83
2019-04-22T08:21:22.016Z,37.86
2019-04-22T08:24:08.204Z,37.64
2019-04-22T08:26:25.910Z,38.37
2019-04-22T08:28:55.784Z,37.30
2019-04-22T08:31:20.313Z,37.46
2019-04-22T08:33:49.597Z,35.67
2019-04-22T08:36:18.361Z,34.81
2019-04-22T08:38:54.259Z,35.12
2019-04-22T08:41:22.947Z,35.19
2019-04-22T08:46:17.026Z,34.70
2019-04-22T08:48:45.971Z,34.60
2019-04-22T08:51:19.245Z,34.64
2019-04-22T08:53:49.943Z,33.85
2019-04-22T08:56:21.548Z,33.10
2019-04-22T09:03:30.443Z,35.08
2019-04-22T09:06:09.012Z,29.91
2019-04-22T09:08:33.827Z,30.03
2019-04-22T09:11:11.611Z,29.84
2019-04-22T09:13:33.389Z,29.86
2019-04-22T09:15:55.525Z,30.39
2019-04-22T09:18:28.807Z,28.77
2019-04-22T09:21:04.284Z,28.06
2019-04-22T09:25:48.747Z,27.02
2019-04-22T09:28:23.258Z,26.46
2019-04-22T09:30:55.273Z,26.17
2019-04-22T09:33:29.920Z,25.19
2019-04-22T09:38:31.521Z,25.11
2019-04-22T09:40:52.669Z,24.75
2019-04-22T09:43:24.152Z,24.95
2019-04-22T09:45:47.831Z,24.60
2019-04-22T09:48:28.171Z,23.36
2019-04-22T09:50:48.807Z,24.33
2019-04-22T09:53:14.835Z,23.59
2019-04-22T09:55:43.097Z,24.86
2019-04-22T09:58:10.811Z,23.69
2019-04-22T10:00:42.979Z,23.17
2019-04-22T10:03:16.611Z,22.62
2019-04-22T10:05:40.781Z,22.54
2019-04-22T10:08:18.194Z,22.53
2019-04-22T10:10:48.906Z,23.04
2019-04-22T10:13:03.153Z,23.04
2019-04-22T10:15:37.636Z,22.80
2019-04-22T10:18:04.177Z,21.84
2019-04-22T10:20:31.417Z,21.38
2019-04-22T10:22:57.702Z,21.38
2019-04-22T10:25:31.312Z,22.08
2019-04-22T10:28:01.264Z,23.12
2019-04-22T10:30:38.380Z,21.16
2019-04-22T10:32:52.412Z,20.54
2019-04-22T10:35:15.580Z,21.32
2019-04-22T10:37:38.768Z,22.45
2019-04-22T10:40:13.620Z,22.93
2019-04-22T10:42:41.100Z,21.39
2019-04-22T10:45:19.040Z,21.39
2019-04-22T10:47:46.227Z,21.61
2019-04-22T10:50:14.472Z,21.83
2019-04-22T10:52:41.513Z,23.00
2019-04-22T10:55:09.758Z,21.76
2019-04-22T10:57:36.709Z,22.47
2019-04-22T11:00:06.769Z,22.61
2019-04-22T11:02:33.627Z,23.38
2019-04-22T11:05:00.277Z,23.41
2019-04-22T11:07:36.166Z,21.00
2019-04-22T11:10:14.939Z,21.86
2019-04-22T11:12:28.006Z,21.66
2019-04-22T11:14:53.847Z,20.07
2019-04-22T11:17:21.778Z,21.54
2019-04-22T11:19:49.857Z,20.21
2019-04-22T11:22:22.096Z,20.78
2019-04-22T11:24:46.586Z,21.52
2019-04-22T11:27:14.958Z,22.34
2019-04-22T11:29:41.674Z,22.86
2019-04-22T11:32:08.607Z,22.00
2019-04-22T11:34:35.504Z,23.29
2019-04-22T11:37:03.302Z,22.95
2019-04-22T11:39:34.126Z,21.31
2019-04-22T11:42:00.283Z,21.90
2019-04-22T11:44:30.641Z,21.32
2019-04-22T11:46:57.273Z,22.54
2019-04-22T11:49:23.945Z,21.99
2019-04-22T11:51:51.800Z,23.32
2019-04-22T11:54:18.978Z,23.09
2019-04-22T11:56:47.199Z,22.06
2019-04-22T11:59:15.108Z,22.13
2019-04-22T12:01:44.651Z,22.60
2019-04-22T12:04:11.752Z,23.13
2019-04-22T12:06:39.934Z,23.47
2019-04-22T12:09:12.116Z,23.51
2019-04-22T12:11:38.927Z,23.35
2019-04-22T12:14:06.267Z,23.62
2019-04-22T12:16:32.970Z,22.79
2019-04-22T12:19:00.847Z,22.38
2019-04-22T12:21:28.982Z,24.52
2019-04-22T12:23:56.957Z,23.60
2019-04-22T12:26:25.468Z,23.53
2019-04-22T12:28:53.241Z,24.70
2019-04-22T12:31:21.698Z,23.29
2019-04-22T12:33:49.649Z,23.79
2019-04-22T12:36:20.642Z,24.35
2019-04-22T12:38:53.758Z,25.41
2019-04-22T12:41:25.665Z,22.82
2019-04-22T12:43:57.098Z,23.71
2019-04-22T12:46:28.268Z,22.42
2019-04-22T12:49:00.259Z,22.37
2019-04-22T12:51:31.347Z,23.97
2019-04-22T12:54:03.391Z,22.72
2019-04-22T12:56:33.389Z,23.00
2019-04-22T12:59:05.765Z,21.21
2019-04-22T13:01:33.105Z,22.15
2019-04-22T13:04:09.091Z,23.14
2019-04-22T13:06:35.866Z,23.39
2019-04-22T13:09:08.488Z,23.17
2019-04-22T13:11:42.247Z,25.24
2019-04-22T13:14:12.962Z,25.67
2019-04-22T13:16:44.945Z,25.04
2019-04-22T13:19:18.647Z,24.81
2019-04-22T13:21:46.897Z,25.00
2019-04-22T13:24:19.877Z,24.49
2019-04-22T13:26:46.508Z,24.75
2019-04-22T13:29:13.127Z,24.74
2019-04-22T13:31:40.524Z,25.20
2019-04-22T13:34:10.551Z,26.47
2019-04-22T13:36:36.624Z,24.62
2019-04-22T13:39:07.011Z,27.29
2019-04-22T13:41:45.532Z,27.29
2019-04-22T13:44:04.994Z,26.58
2019-04-22T13:46:35.590Z,27.30
2019-04-22T13:49:35.350Z,28.65
2019-04-22T13:56:48.051Z,28.45
2019-04-22T13:59:09.229Z,28.04
2019-04-22T14:01:28.652Z,27.83
2019-04-22T14:03:58.619Z,29.09
2019-04-22T14:06:26.822Z,28.79
2019-04-22T14:08:53.684Z,29.40
2019-04-22T14:11:28.728Z,28.77
2019-04-22T14:13:50.228Z,29.70
2019-04-22T14:16:17.202Z,30.38
2019-04-22T14:18:45.925Z,31.21
2019-04-22T14:21:12.559Z,31.02
2019-04-22T14:23:40.523Z,31.58
2019-04-22T14:26:07.483Z,31.58
2019-04-22T14:28:35.502Z,31.59
2019-04-22T14:31:02.451Z,31.93
2019-04-22T14:33:30.378Z,31.54
2019-04-22T14:35:58.080Z,31.86
2019-04-22T14:38:25.916Z,31.81
2019-04-22T14:40:54.480Z,31.83
2019-04-22T14:44:16.459Z,32.57
2019-04-22T14:48:46.435Z,33.42
2019-04-22T14:51:07.423Z,34.29
2019-04-22T14:53:35.211Z,34.22
2019-04-22T14:55:46.455Z,33.14
2019-04-22T14:58:13.319Z,34.38
2019-04-22T15:00:40.270Z,35.33
2019-04-22T15:03:08.221Z,34.69
2019-04-22T15:05:36.498Z,35.15
2019-04-22T15:08:03.421Z,34.81
2019-04-22T15:10:30.022Z,35.36
2019-04-22T15:12:59.084Z,34.15
2019-04-22T15:15:27.230Z,33.93
2019-04-22T15:17:58.918Z,34.74
2019-04-22T15:20:34.021Z,34.80
2019-04-22T15:23:02.303Z,35.13
2019-04-22T15:25:32.537Z,35.78
2019-04-22T15:28:03.581Z,34.90
2019-04-22T15:30:31.421Z,34.72
2019-04-22T15:32:59.065Z,34.90
2019-04-22T15:35:27.263Z,35.11
2019-04-22T15:37:55.204Z,35.68
2019-04-22T15:40:22.700Z,35.11
2019-04-22T15:42:50.712Z,36.27
2019-04-22T15:45:18.789Z,36.19
2019-04-22T15:47:46.368Z,36.15
2019-04-22T15:50:14.288Z,36.45
2019-04-22T15:52:49.464Z,36.91
2019-04-22T15:55:10.927Z,38.18
2019-04-22T15:57:38.442Z,38.68
2019-04-22T16:00:21.351Z,39.23
2019-04-22T16:02:37.535Z,38.94
2019-04-22T16:05:06.525Z,38.85
2019-04-22T16:07:33.812Z,39.02
2019-04-22T16:10:01.857Z,38.84
2019-04-22T16:12:38.672Z,39.03
2019-04-22T16:14:59.270Z,38.98
2019-04-22T16:17:26.462Z,38.85
2019-04-22T16:19:53.345Z,39.52
2019-04-22T16:22:23.111Z,39.66
2019-04-22T16:24:54.119Z,40.10
2019-04-22T16:27:22.935Z,40.24
2019-04-22T16:29:49.825Z,40.43
2019-04-22T16:32:16.515Z,40.13
2019-04-22T16:34:43.305Z,41.12
2019-04-22T16:37:12.566Z,41.69
2019-04-22T16:39:42.041Z,41.70
2019-04-22T16:42:14.461Z,42.38
2019-04-22T16:44:38.784Z,42.45
2019-04-22T16:47:05.767Z,42.70
2019-04-22T16:49:33.797Z,43.52
2019-04-22T16:52:00.659Z,43.58
2019-04-22T16:54:27.923Z,43.74
2019-04-22T16:56:57.587Z,43.23
2019-04-22T16:59:24.649Z,43.85
2019-04-22T17:02:06.296Z,44.36
2019-04-22T17:04:40.908Z,43.98
2019-04-22T17:07:11.234Z,44.62
2019-04-22T17:09:37.952Z,44.69
2019-04-22T17:12:06.137Z,44.55
2019-04-22T17:14:41.353Z,43.55
2019-04-22T17:17:04.329Z,43.94
2019-04-22T17:19:35.711Z,43.23
2019-04-22T17:22:05.858Z,43.97
2019-04-22T17:24:32.774Z,43.42
2019-04-22T17:27:00.119Z,43.99
2019-04-22T17:29:28.544Z,43.88
2019-04-22T17:32:01.688Z,43.84
2019-04-22T17:34:23.735Z,43.55
2019-04-22T17:36:51.001Z,43.82
2019-04-22T17:39:32.633Z,43.41
2019-04-22T17:42:03.508Z,43.08
2019-04-22T17:44:42.360Z,43.21
2019-04-22T17:47:05.319Z,43.39
2019-04-22T17:49:51.126Z,43.58
2019-04-22T17:52:21.831Z,43.35
2019-04-22T17:54:49.388Z,43.50
2019-04-22T17:57:19.571Z,43.96
2019-04-22T17:59:46.689Z,43.88
2019-04-22T18:02:09.773Z,44.19
2019-04-22T18:04:25.372Z,44.33
2019-04-22T18:07:19.045Z,44.69
2019-04-22T18:10:14.719Z,44.89
2019-04-22T18:12:19.260Z,44.84
2019-04-22T18:14:50.652Z,45.32
2019-04-22T18:17:14.098Z,45.19
2019-04-22T18:19:36.361Z,45.40
2019-04-22T18:22:00.805Z,45.74
2019-04-22T18:24:23.935Z,46.10
2019-04-22T18:27:18.564Z,46.55
2019-04-22T18:29:33.089Z,46.90
2019-04-22T18:31:50.198Z,46.71
2019-04-22T18:34:23.398Z,46.93
2019-04-22T18:36:55.213Z,47.38
2019-04-22T18:39:27.200Z,48.00
2019-04-22T18:41:51.887Z,48.72
2019-04-22T18:44:27.171Z,49.05
2019-04-22T18:46:52.099Z,49.55
2019-04-22T18:49:22.298Z,50.02
2019-04-22T18:52:01.139Z,49.83
2019-04-22T18:54:36.027Z,50.51
2019-04-22T18:57:09.831Z,50.88
2019-04-22T18:59:26.319Z,51.68
2019-04-22T19:01:51.845Z,51.49
2019-04-22T19:04:25.383Z,51.77
2019-04-22T19:07:15.271Z,51.40
2019-04-22T19:09:43.983Z,51.70
2019-04-22T19:12:16.957Z,51.97
2019-04-22T19:14:43.607Z,51.83
2019-04-22T19:17:20.401Z,51.93
2019-04-22T19:21:58.428Z,52.02
2019-04-22T19:24:29.060Z,52.10
2019-04-22T19:29:33.631Z,52.52
2019-04-22T19:31:56.918Z,52.64
2019-04-22T19:34:25.606Z,52.83
2019-04-22T19:37:00.561Z,53.05
2019-04-22T19:39:20.995Z,53.17
2019-04-22T19:41:59.180Z,53.27
2019-04-22T19:44:20.151Z,53.55
2019-04-22T19:47:10.795Z,53.42
2019-04-22T19:51:58.853Z,53.78
2019-04-22T19:54:19.448Z,53.83
2019-04-22T19:56:38.730Z,54.12
2019-04-22T19:59:08.741Z,54.34
2019-04-22T20:02:00.654Z,54.65
2019-04-22T20:04:44.505Z,54.67
2019-04-22T20:07:06.815Z,54.52
2019-04-22T20:09:35.130Z,53.96
2019-04-22T20:12:04.548Z,54.50
2019-04-22T20:14:35.842Z,53.97
2019-04-22T20:16:58.601Z,54.33
2019-04-22T20:19:39.767Z,53.99
2019-04-22T20:22:00.002Z,54.44
2019-04-22T20:24:15.683Z,54.41
2019-04-22T20:27:05.592Z,54.36
2019-04-22T20:29:31.093Z,53.72
2019-04-22T20:31:54.605Z,53.30
2019-04-22T20:34:26.685Z,53.47
2019-04-22T20:37:06.524Z,54.01
2019-04-22T20:39:27.063Z,53.16
2019-04-22T20:41:45.741Z,53.70
2019-04-22T20:44:22.474Z,53.84
2019-04-22T20:46:47.404Z,54.03
2019-04-22T20:49:22.308Z,54.17
2019-04-22T20:51:53.633Z,54.13
2019-04-22T20:54:11.577Z,54.17
2019-04-22T20:56:36.819Z,54.16
2019-04-22T20:59:14.938Z,54.41
2019-04-22T21:01:38.192Z,54.41
2019-04-22T21:03:55.431Z,54.19
2019-04-22T21:06:38.399Z,54.35
2019-04-22T21:09:08.894Z,54.29
2019-04-22T21:11:34.029Z,54.07
2019-04-22T21:14:01.463Z,54.26
2019-04-22T21:16:32.840Z,54.13
2019-04-22T21:18:57.777Z,54.03
2019-04-22T21:21:31.664Z,54.25
2019-04-22T21:23:48.923Z,53.90
2019-04-22T21:26:24.086Z,54.10
2019-04-22T21:28:53.505Z,54.08
2019-04-22T21:31:29.561Z,54.16
2019-04-22T21:33:51.516Z,54.39
2019-04-22T21:36:24.928Z,54.52
2019-04-22T21:38:51.271Z,54.21
2019-04-22T21:41:15.768Z,54.36
2019-04-22T21:43:50.034Z,54.60
2019-04-22T21:46:20.824Z,54.99
2019-04-22T21:48:48.184Z,55.20
2019-04-22T21:51:22.636Z,55.23
2019-04-22T21:53:55.181Z,55.76
2019-04-22T21:56:33.650Z,56.04
2019-04-22T21:58:43.655Z,56.48
2019-04-22T22:01:38.100Z,56.81
2019-04-22T22:04:15.215Z,57.21
2019-04-22T22:06:15.127Z,57.47
2019-04-22T22:08:55.119Z,57.54
2019-04-22T22:11:18.857Z,57.71
2019-04-22T22:13:53.292Z,57.87
2019-04-22T22:16:16.091Z,58.08
2019-04-22T22:18:50.657Z,57.95
2019-04-22T22:21:38.108Z,58.03
2019-04-22T22:23:42.466Z,58.57
2019-04-22T22:26:12.297Z,58.83
2019-04-22T22:28:52.971Z,58.96
2019-04-22T22:31:17.108Z,59.38
2019-04-22T22:33:45.123Z,59.65
2019-04-22T22:36:08.618Z,59.94
2019-04-22T22:38:35.224Z,60.40
2019-04-22T22:40:48.014Z,60.75
2019-04-22T22:43:22.696Z,60.95
2019-04-22T22:45:52.940Z,61.25
2019-04-22T22:48:36.419Z,61.63
2019-04-22T22:51:01.975Z,61.53
2019-04-22T22:55:59.281Z,61.97
2019-04-22T22:58:27.738Z,61.76
2019-04-22T23:00:56.169Z,61.85
2019-04-22T23:03:46.586Z,61.88
2019-04-22T23:05:59.164Z,61.99
2019-04-22T23:08:25.690Z,61.85
2019-04-22T23:11:05.666Z,61.47
2019-04-22T23:13:22.137Z,61.81
2019-04-22T23:15:43.075Z,61.18
2019-04-22T23:17:56.190Z,61.63
2019-04-22T23:20:28.929Z,61.15
2019-04-22T23:23:13.792Z,60.77
2019-04-22T23:25:50.022Z,60.97
2019-04-22T23:28:13.376Z,61.11
2019-04-22T23:30:47.555Z,60.79
2019-04-22T23:33:27.698Z,61.13
2019-04-22T23:36:01.442Z,61.15
2019-04-22T23:38:44.315Z,61.27
2019-04-22T23:41:05.446Z,61.03
2019-04-22T23:43:39.985Z,61.35
2019-04-22T23:46:08.401Z,60.91
2019-04-22T23:48:28.557Z,61.45
2019-04-22T23:51:12.155Z,61.17
2019-04-22T23:56:09.233Z,61.21
2019-04-22T23:58:47.126Z,61.60
